createdAt,value
2023-12-14T00:01:51.453Z,100141.13
2023-12-14T00:04:19.775Z,100139.22
2023-12-14T00:06:47.781Z,100146.56
2023-12-14T00:09:15.809Z,100145.94
2023-12-14T00:11:43.861Z,100158.47
2023-12-14T00:14:12.300Z,100169.34
2023-12-14T00:16:41.753Z,100163.06
2023-12-14T00:19:10.074Z,100163.06
2023-12-14T00:21:38.056Z,100167.69
2023-12-14T00:24:06.131Z,100164.97
2023-12-14T00:26:34.067Z,100165.78
2023-12-14T00:29:02.618Z,100175.00
2023-12-14T00:31:31.027Z,100173.38
2023-12-14T00:34:00.547Z,100185.03
2023-12-14T00:36:29.786Z,100188.56
2023-12-14T00:38:58.144Z,100195.09
2023-12-14T00:41:26.117Z,100197.81
2023-12-14T00:43:54.113Z,100201.59
2023-12-14T00:46:22.353Z,100211.41
2023-12-14T00:48:50.329Z,100213.28
2023-12-14T00:51:19.710Z,100219.53
2023-12-14T00:53:47.695Z,100225.19
2023-12-14T00:56:16.794Z,100235.00
2023-12-14T00:58:45.745Z,100236.91
2023-12-14T01:01:13.758Z,100245.03
2023-12-14T01:03:41.741Z,100250.47
2023-12-14T01:06:10.045Z,100259.47
2023-12-14T01:08:39.421Z,100258.63
2023-12-14T01:11:08.865Z,100259.47
2023-12-14T01:13:36.871Z,100271.16
2023-12-14T01:16:05.660Z,100271.16
2023-12-14T01:18:33.893Z,100274.94
2023-12-14T01:21:01.871Z,100275.75
2023-12-14T01:23:29.922Z,100276.81
2023-12-14T01:25:59.585Z,100284.97
2023-12-14T01:28:27.914Z,100289.34
2023-12-14T01:30:56.228Z,100284.97
2023-12-14T01:33:33.787Z,100302.09
2023-12-14T01:36:02.144Z,100297.50
2023-12-14T01:38:30.168Z,100296.03
2023-12-14T01:41:00.421Z,100310.47
2023-12-14T01:43:28.493Z,100312.13
2023-12-14T01:45:56.791Z,100316.72
2023-12-14T01:48:24.817Z,100321.31
2023-12-14T01:50:52.889Z,100334.69
2023-12-14T01:53:21.018Z,100335.75
2023-12-14T01:55:49.285Z,100333.09
2023-12-14T01:58:18.692Z,100344.72
2023-12-14T02:00:48.827Z,100363.94
2023-12-14T02:03:16.912Z,100363.94
2023-12-14T02:05:45.218Z,100365.84
2023-12-14T02:08:13.190Z,100366.66
2023-12-14T02:10:41.266Z,100376.69
2023-12-14T02:13:09.539Z,100372.09
2023-12-14T02:15:39.186Z,100385.69
2023-12-14T02:18:07.205Z,100384.00
2023-12-14T02:20:35.214Z,100387.56
2023-12-14T02:23:04.551Z,100385.69
2023-12-14T02:25:32.951Z,100398.44
2023-12-14T02:28:00.951Z,100405.75
2023-12-14T02:30:29.017Z,100413.91
2023-12-14T02:32:57.023Z,100420.16
2023-12-14T02:35:25.350Z,100419.13
2023-12-14T02:37:53.377Z,100426.66
2023-12-14T02:40:22.791Z,100430.19
2023-12-14T02:42:50.775Z,100435.88
2023-12-14T02:45:19.109Z,100433.16
2023-12-14T02:47:48.864Z,100439.44
2023-12-14T02:50:17.037Z,100446.50
2023-12-14T02:52:45.033Z,100451.94
2023-12-14T02:55:13.322Z,100455.72
2023-12-14T02:57:42.740Z,100460.06
2023-12-14T03:00:11.881Z,100461.97
2023-12-14T03:02:39.867Z,100470.09
2023-12-14T03:05:10.823Z,100467.41
2023-12-14T03:07:39.072Z,100469.31
2023-12-14T03:10:08.120Z,100475.53
2023-12-14T03:12:36.283Z,100483.47
2023-12-14T03:15:08.709Z,100484.53
2023-12-14T03:17:37.219Z,100486.41
2023-12-14T03:20:07.492Z,100488.06
2023-12-14T03:22:36.031Z,100492.69
2023-12-14T03:25:04.788Z,100456.03
2023-12-14T03:27:32.781Z,100501.06
2023-12-14T03:30:00.985Z,100475.38
2023-12-14T03:32:30.485Z,100514.66
2023-12-14T03:34:58.996Z,100518.41
2023-12-14T03:37:26.967Z,100528.44
2023-12-14T03:39:56.336Z,100530.94
2023-12-14T03:42:24.308Z,100517.63
2023-12-14T03:44:52.306Z,100534.50
2023-12-14T03:47:20.446Z,100539.09
2023-12-14T03:49:50.657Z,100538.28
2023-12-14T03:52:18.630Z,100547.47
2023-12-14T03:54:47.366Z,100546.41
2023-12-14T03:57:15.668Z,100543.69
2023-12-14T03:59:43.631Z,100547.47
2023-12-14T04:02:11.654Z,100565.44
2023-12-14T04:04:39.705Z,100566.25
2023-12-14T04:07:09.345Z,100570.88
2023-12-14T04:09:37.375Z,100573.78
2023-12-14T04:12:06.267Z,100580.06
2023-12-14T04:14:34.204Z,100589.03
2023-12-14T04:17:02.491Z,100595.53
2023-12-14T04:19:30.570Z,100595.53
2023-12-14T04:21:58.539Z,100606.38
2023-12-14T04:24:28.504Z,100609.72
2023-12-14T04:26:56.750Z,100606.19
2023-12-14T04:29:24.711Z,100610.78
2023-12-14T04:31:54.332Z,100618.72
2023-12-14T04:34:22.412Z,100616.81
2023-12-14T04:36:50.748Z,100617.63
2023-12-14T04:39:19.364Z,100623.91
2023-12-14T04:41:49.219Z,100625.56
2023-12-14T04:44:17.583Z,100624.34
2023-12-14T04:46:45.538Z,100637.47
2023-12-14T04:49:13.628Z,100643.75
2023-12-14T04:51:41.569Z,100652.75
2023-12-14T04:54:09.532Z,100650.03
2023-12-14T04:56:37.820Z,100658.16
2023-12-14T04:59:07.679Z,100663.59
2023-12-14T05:01:35.734Z,100669.03
2023-12-14T05:04:04.030Z,100669.88
2023-12-14T05:06:34.248Z,100677.19
2023-12-14T05:09:04.838Z,100679.91
2023-12-14T05:11:32.843Z,100676.34
2023-12-14T05:14:00.887Z,100679.91
2023-12-14T05:16:30.500Z,100692.66
2023-12-14T05:18:59.104Z,100684.50
2023-12-14T05:21:27.049Z,100687.22
2023-12-14T05:23:55.378Z,100694.53
2023-12-14T05:26:23.579Z,100700.81
2023-12-14T05:28:51.564Z,100704.34
2023-12-14T05:31:19.949Z,100706.25
2023-12-14T05:33:49.306Z,100714.19
2023-12-14T05:36:17.593Z,100713.34
2023-12-14T05:38:45.733Z,100718.78
2023-12-14T05:41:13.714Z,100724.22
2023-12-14T05:43:42.182Z,100719.59
2023-12-14T05:46:10.450Z,100731.53
2023-12-14T05:48:39.755Z,100732.34
2023-12-14T05:51:09.261Z,100738.63
2023-12-14T05:53:40.690Z,100745.94
2023-12-14T05:56:10.690Z,100745.09
2023-12-14T05:58:38.683Z,100751.38
2023-12-14T06:01:06.843Z,100755.97
2023-12-14T06:03:34.799Z,100755.97
2023-12-14T06:06:02.820Z,100769.56
2023-12-14T06:08:32.463Z,100770.41
2023-12-14T06:11:00.450Z,100775.00
2023-12-14T06:13:28.519Z,100775.44
2023-12-14T06:15:56.461Z,100782.09
2023-12-14T06:18:24.763Z,100796.50
2023-12-14T06:20:52.735Z,100799.22
2023-12-14T06:23:20.830Z,100808.22
2023-12-14T06:25:50.243Z,100811.97
2023-12-14T06:28:18.521Z,100818.25
2023-12-14T06:30:46.632Z,100827.25
2023-12-14T06:33:14.748Z,100822.84
2023-12-14T06:35:42.783Z,100829.13
2023-12-14T06:38:11.139Z,100843.53
2023-12-14T06:40:39.113Z,100841.88
2023-12-14T06:43:08.481Z,100851.91
2023-12-14T06:45:39.056Z,100851.91
2023-12-14T06:48:07.888Z,100863.59
2023-12-14T06:50:35.966Z,100872.59
2023-12-14T06:53:04.699Z,100867.34
2023-12-14T06:55:32.716Z,100872.78
2023-12-14T06:58:00.959Z,100881.78
2023-12-14T07:00:30.697Z,100887.22
2023-12-14T07:02:58.659Z,100892.66
2023-12-14T07:05:27.236Z,100888.88
2023-12-14T07:07:55.612Z,100902.47
2023-12-14T07:10:23.565Z,100898.09
2023-12-14T07:12:51.587Z,100903.72
2023-12-14T07:15:19.616Z,100910.63
2023-12-14T07:17:49.295Z,100914.38
2023-12-14T07:20:17.354Z,100921.50
2023-12-14T07:22:45.396Z,100918.13
2023-12-14T07:25:13.386Z,100938.84
2023-12-14T07:27:41.587Z,100944.28
2023-12-14T07:30:10.762Z,100943.44
2023-12-14T07:32:39.102Z,100953.25
2023-12-14T07:35:09.693Z,100960.56
2023-12-14T07:37:37.706Z,100964.13
2023-12-14T07:40:06.578Z,100966.84
2023-12-14T07:42:34.836Z,100977.72
2023-12-14T07:45:03.051Z,100981.25
2023-12-14T07:47:31.324Z,100990.47
2023-12-14T07:49:59.338Z,100992.34
2023-12-14T07:52:28.800Z,100999.44
2023-12-14T07:54:56.798Z,101000.50
2023-12-14T07:57:25.016Z,101013.88
2023-12-14T07:59:52.957Z,101007.81
2023-12-14T08:02:20.958Z,101009.47
2023-12-14T08:04:48.937Z,101017.41
2023-12-14T08:07:17.226Z,101016.59
2023-12-14T08:09:46.572Z,101024.72
2023-12-14T08:12:14.522Z,101029.34
2023-12-14T08:14:44.886Z,101029.34
2023-12-14T08:17:13.263Z,101041.03
2023-12-14T08:19:41.295Z,101046.47
2023-12-14T08:22:12.119Z,101054.63
2023-12-14T08:24:40.120Z,101058.19
2023-12-14T08:27:09.693Z,101062.78
2023-12-14T08:29:37.730Z,101070.94
2023-12-14T08:32:06.575Z,101070.94
2023-12-14T08:34:34.594Z,101077.19
2023-12-14T08:37:03.328Z,101079.91
2023-12-14T08:39:31.269Z,101087.22
2023-12-14T08:41:59.241Z,101098.09
2023-12-14T08:44:28.594Z,101098.94
2023-12-14T08:46:56.635Z,101098.94
2023-12-14T08:49:25.062Z,101108.97
2023-12-14T08:51:53.376Z,101116.28
2023-12-14T08:54:21.337Z,101122.56
2023-12-14T08:56:49.583Z,101126.09
2023-12-14T08:59:18.464Z,101134.25
2023-12-14T09:01:47.929Z,101138.84
2023-12-14T09:04:16.037Z,101143.25
2023-12-14T09:06:46.176Z,101149.72
2023-12-14T09:09:14.232Z,101153.28
2023-12-14T09:11:42.189Z,101156.00
2023-12-14T09:14:10.224Z,101164.16
2023-12-14T09:16:38.622Z,101160.59
2023-12-14T09:19:08.115Z,101172.50
2023-12-14T09:21:41.315Z,101175.00
2023-12-14T09:24:14.705Z,101165.19
2023-12-14T09:26:43.052Z,101174.19
2023-12-14T09:29:11.043Z,101176.06
2023-12-14T09:31:39.126Z,101182.31
2023-12-14T09:34:08.637Z,101182.31
2023-12-14T09:36:36.998Z,101189.44
2023-12-14T09:39:05.705Z,101189.44
2023-12-14T09:41:33.685Z,101192.16
2023-12-14T09:44:03.290Z,101195.69
2023-12-14T09:46:31.295Z,101201.13
2023-12-14T09:48:59.348Z,101203.84
2023-12-14T09:51:29.089Z,101203.84
2023-12-14T09:53:59.267Z,101207.38
2023-12-14T09:56:27.649Z,101210.94
2023-12-14T09:58:55.710Z,101212.81
2023-12-14T10:01:26.215Z,101217.22
2023-12-14T10:04:09.076Z,101220.97
2023-12-14T10:06:38.522Z,101228.28
2023-12-14T10:09:10.268Z,101235.41
2023-12-14T10:11:38.763Z,101238.13
2023-12-14T10:14:19.821Z,101240.84
2023-12-14T10:16:47.981Z,101244.59
2023-12-14T10:19:16.076Z,101255.47
2023-12-14T10:21:45.471Z,101261.72
2023-12-14T10:24:14.196Z,101266.31
2023-12-14T10:26:43.382Z,101268.84
2023-12-14T10:29:11.353Z,101277.19
2023-12-14T10:31:39.411Z,101274.47
2023-12-14T10:34:07.513Z,101284.31
2023-12-14T10:36:35.778Z,101289.97
2023-12-14T10:39:06.460Z,101288.91
2023-12-14T10:41:34.473Z,101293.50
2023-12-14T10:44:18.801Z,101304.38
2023-12-14T10:46:50.591Z,101311.72
2023-12-14T10:49:18.683Z,101315.25
2023-12-14T10:51:49.127Z,101317.97
2023-12-14T10:54:19.054Z,101321.50
2023-12-14T10:56:46.977Z,101317.97
2023-12-14T10:59:17.208Z,101308.16
2023-12-14T11:01:45.388Z,101314.19
2023-12-14T11:04:15.989Z,101316.09
2023-12-14T11:06:48.357Z,101318.78
2023-12-14T11:09:16.545Z,101320.66
2023-12-14T11:11:58.642Z,101324.22
2023-12-14T11:14:26.914Z,101329.66
2023-12-14T11:16:56.490Z,101334.25
2023-12-14T11:19:31.709Z,101341.38
2023-12-14T11:22:13.885Z,101345.13
2023-12-14T11:24:44.665Z,101345.97
2023-12-14T11:27:14.511Z,101352.25
2023-12-14T11:29:42.967Z,101351.41
2023-12-14T11:32:11.192Z,101355.81
2023-12-14T11:34:41.516Z,101364.78
2023-12-14T11:37:10.279Z,101364.78
2023-12-14T11:39:38.335Z,101373.97
2023-12-14T11:42:08.057Z,101376.69
2023-12-14T11:44:38.277Z,101383.81
2023-12-14T11:47:07.739Z,101380.25
2023-12-14T11:49:35.764Z,101377.53
2023-12-14T11:52:04.615Z,101378.38
2023-12-14T11:54:32.672Z,101380.25
2023-12-14T11:57:03.867Z,101388.41
2023-12-14T11:59:31.927Z,101393.00
2023-12-14T12:02:02.658Z,101384.84
2023-12-14T12:04:31.697Z,101389.25
2023-12-14T12:07:03.721Z,101387.56
2023-12-14T12:09:39.283Z,101388.41
2023-12-14T12:12:11.004Z,101390.28
2023-12-14T12:14:39.058Z,101390.28
2023-12-14T12:17:09.598Z,101394.88
2023-12-14T12:19:38.836Z,101377.31
2023-12-14T12:22:06.963Z,101386.72
2023-12-14T12:24:35.334Z,101388.59
2023-12-14T12:27:03.387Z,101390.28
2023-12-14T12:29:31.399Z,101388.41
2023-12-14T12:31:59.494Z,101382.97
2023-12-14T12:34:29.050Z,101382.97
2023-12-14T12:36:58.857Z,101368.97
2023-12-14T12:39:26.857Z,101376.69
2023-12-14T12:41:54.804Z,101389.25
2023-12-14T12:44:22.791Z,101390.28
2023-12-14T12:46:58.285Z,101398.25
2023-12-14T12:49:35.820Z,101407.25
2023-12-14T12:52:04.105Z,101409.13
2023-12-14T12:54:33.474Z,101406.41
2023-12-14T12:57:01.466Z,101417.28
2023-12-14T12:59:29.373Z,101428.13
2023-12-14T13:01:57.289Z,101429.81
2023-12-14T13:04:27.329Z,101424.38
2023-12-14T13:06:56.643Z,101433.38
2023-12-14T13:09:24.611Z,101435.25
2023-12-14T13:11:53.518Z,101435.25
2023-12-14T13:14:21.528Z,101437.75
2023-12-14T13:16:50.909Z,101436.94
2023-12-14T13:19:18.971Z,101444.03
2023-12-14T13:21:46.912Z,101452.19
2023-12-14T13:24:16.218Z,101458.69
2023-12-14T13:26:44.199Z,101451.34
2023-12-14T13:29:12.296Z,101460.56
2023-12-14T13:31:40.311Z,101457.84
2023-12-14T13:34:08.319Z,101474.34
2023-12-14T13:36:36.261Z,101472.47
2023-12-14T13:39:04.421Z,101475.19
2023-12-14T13:41:45.298Z,101474.34
2023-12-14T13:44:18.408Z,101478.94
2023-12-14T13:46:46.580Z,101481.66
2023-12-14T13:49:14.993Z,101490.66
2023-12-14T13:51:42.951Z,101496.06
2023-12-14T13:54:10.955Z,101502.53
2023-12-14T13:56:41.489Z,101505.25
2023-12-14T13:59:09.451Z,101506.94
2023-12-14T14:01:38.911Z,101504.44
2023-12-14T14:04:06.825Z,101516.31
2023-12-14T14:06:35.144Z,101525.13
2023-12-14T14:09:03.395Z,101534.31
2023-12-14T14:11:31.457Z,101547.06
2023-12-14T14:14:00.922Z,101552.50
2023-12-14T14:16:28.897Z,101553.56
2023-12-14T14:18:56.833Z,101555.22
2023-12-14T14:21:24.857Z,101560.66
2023-12-14T14:23:52.788Z,101567.97
2023-12-14T14:26:21.017Z,101576.09
2023-12-14T14:28:50.037Z,101580.72
2023-12-14T14:31:19.376Z,101583.44
2023-12-14T14:33:52.206Z,101587.81
2023-12-14T14:36:23.627Z,101593.25
2023-12-14T14:38:53.472Z,101594.94
2023-12-14T14:41:22.767Z,101605.63
2023-12-14T14:43:50.868Z,101615.25
2023-12-14T14:46:20.264Z,101612.34
2023-12-14T14:48:48.656Z,101611.13
2023-12-14T14:51:33.101Z,101615.50
2023-12-14T14:54:02.359Z,101612.59
2023-12-14T14:56:30.320Z,101617.00
2023-12-14T14:58:59.029Z,101624.09
2023-12-14T15:01:32.328Z,101622.22
2023-12-14T15:04:01.734Z,101617.63
2023-12-14T15:06:29.816Z,101626.00
2023-12-14T15:08:58.832Z,101631.59
2023-12-14T15:11:29.880Z,101632.66
2023-12-14T15:13:59.538Z,101630.78
2023-12-14T15:16:27.653Z,101634.50
2023-12-14T15:19:01.571Z,101642.88
2023-12-14T15:21:31.019Z,101648.31
2023-12-14T15:23:58.956Z,101654.78
2023-12-14T15:26:30.418Z,101654.78
2023-12-14T15:28:58.810Z,101670.25
2023-12-14T15:31:33.060Z,101668.38
2023-12-14T15:34:03.987Z,101674.84
2023-12-14T15:36:35.012Z,101675.88
2023-12-14T15:39:05.461Z,101676.72
2023-12-14T15:41:33.546Z,101675.03
2023-12-14T15:44:03.297Z,101690.31
2023-12-14T15:46:31.688Z,101697.63
2023-12-14T15:49:00.086Z,101694.06
2023-12-14T15:51:31.879Z,101700.34
2023-12-14T15:54:00.712Z,101695.94
2023-12-14T15:56:31.660Z,101713.94
2023-12-14T15:59:02.752Z,101686.41
2023-12-14T16:01:31.259Z,101711.22
2023-12-14T16:03:59.207Z,101723.97
2023-12-14T16:06:27.159Z,101731.25
2023-12-14T16:08:56.533Z,101735.03
2023-12-14T16:11:25.851Z,101740.25
2023-12-14T16:13:57.989Z,101743.19
2023-12-14T16:16:25.980Z,101747.56
2023-12-14T16:18:55.283Z,101751.34
2023-12-14T16:21:23.366Z,101749.47
2023-12-14T16:23:51.832Z,101751.34
2023-12-14T16:26:22.628Z,101763.06
2023-12-14T16:28:51.853Z,101761.16
2023-12-14T16:31:22.608Z,101767.44
2023-12-14T16:33:50.757Z,101769.97
2023-12-14T16:36:18.887Z,101768.09
2023-12-14T16:38:48.969Z,101777.09
2023-12-14T16:41:16.981Z,101785.25
2023-12-14T16:43:46.374Z,101781.88
2023-12-14T16:46:18.774Z,101791.53
2023-12-14T16:48:47.520Z,101794.25
2023-12-14T16:51:15.568Z,101787.97
2023-12-14T16:53:43.848Z,101801.56
2023-12-14T16:56:11.835Z,101805.13
2023-12-14T16:58:39.842Z,101816.00
2023-12-14T17:01:09.514Z,101821.44
2023-12-14T17:03:44.357Z,101825.00
2023-12-14T17:06:14.766Z,101823.31
2023-12-14T17:08:44.333Z,101827.72
2023-12-14T17:11:12.906Z,101827.72
2023-12-14T17:13:40.840Z,101835.03
2023-12-14T17:16:15.171Z,101845.91
2023-12-14T17:18:44.130Z,101830.09
2023-12-14T17:21:18.941Z,101851.34
2023-12-14T17:23:47.010Z,101853.22
2023-12-14T17:26:15.413Z,101854.91
2023-12-14T17:28:45.859Z,101857.63
2023-12-14T17:31:15.385Z,101864.91
2023-12-14T17:33:44.871Z,101871.19
2023-12-14T17:36:13.127Z,101872.06
2023-12-14T17:38:41.060Z,101873.91
2023-12-14T17:41:13.537Z,101872.91
2023-12-14T17:43:43.568Z,101874.78
2023-12-14T17:46:16.360Z,101876.66
2023-12-14T17:48:46.156Z,101882.06
2023-12-14T17:51:14.123Z,101889.38
2023-12-14T17:53:44.833Z,101886.66
2023-12-14T17:56:13.076Z,101888.53
2023-12-14T17:58:44.526Z,101895.84
2023-12-14T18:01:15.403Z,101888.91
2023-12-14T18:03:46.418Z,101896.69
2023-12-14T18:06:14.372Z,101896.69
2023-12-14T18:08:44.768Z,101900.44
2023-12-14T18:11:14.017Z,101893.31
2023-12-14T18:13:42.052Z,101902.13
2023-12-14T18:16:10.660Z,101906.72
2023-12-14T18:18:40.797Z,101910.28
2023-12-14T18:21:10.259Z,101916.56
2023-12-14T18:23:40.550Z,101926.59
2023-12-14T18:26:11.004Z,101918.44
2023-12-14T18:28:42.068Z,101926.59
2023-12-14T18:31:10.864Z,101933.91
2023-12-14T18:33:40.963Z,101926.78
2023-12-14T18:36:10.968Z,101928.66
2023-12-14T18:38:39.196Z,101933.25
2023-12-14T18:41:07.336Z,101945.16
2023-12-14T18:43:40.026Z,101948.69
2023-12-14T18:46:08.315Z,101951.63
2023-12-14T18:48:36.807Z,101957.06
2023-12-14T18:51:05.174Z,101973.38
2023-12-14T18:53:34.565Z,101976.94
2023-12-14T18:56:04.514Z,101979.84
2023-12-14T18:58:36.735Z,101990.03
2023-12-14T19:01:06.557Z,101985.66
2023-12-14T19:03:36.575Z,101992.13
2023-12-14T19:06:11.867Z,102007.41
2023-12-14T19:08:42.488Z,101998.19
2023-12-14T19:11:19.072Z,102005.50
2023-12-14T19:13:49.681Z,102008.22
2023-12-14T19:16:24.181Z,101999.44
2023-12-14T19:18:52.566Z,102006.72
2023-12-14T19:21:21.187Z,101999.44
2023-12-14T19:23:53.180Z,102002.16
2023-12-14T19:26:21.395Z,102004.03
2023-12-14T19:28:49.402Z,102010.31
2023-12-14T19:31:17.410Z,102015.75
2023-12-14T19:33:54.622Z,102012.84
2023-12-14T19:36:23.926Z,102009.06
2023-12-14T19:38:57.008Z,102012.00
2023-12-14T19:41:25.130Z,102014.72
2023-12-14T19:43:53.073Z,102014.88
2023-12-14T19:46:22.545Z,102018.44
2023-12-14T19:48:50.813Z,102016.59
2023-12-14T19:51:19.200Z,102025.59
2023-12-14T19:53:47.091Z,102029.16
2023-12-14T19:56:20.291Z,102036.25
2023-12-14T19:58:49.874Z,102040.84
2023-12-14T20:01:19.600Z,102042.53
2023-12-14T20:03:48.910Z,102044.22
2023-12-14T20:06:23.044Z,102052.38
2023-12-14T20:08:51.136Z,102055.94
2023-12-14T20:11:20.958Z,102066.81
2023-12-14T20:13:49.038Z,102063.06
2023-12-14T20:16:16.974Z,102061.19
2023-12-14T20:18:45.023Z,102068.50
2023-12-14T20:21:13.051Z,102070.19
2023-12-14T20:23:41.070Z,102078.34
2023-12-14T20:26:10.218Z,102067.66
2023-12-14T20:28:40.321Z,102068.50
2023-12-14T20:31:09.515Z,102068.50
2023-12-14T20:33:37.958Z,102076.66
2023-12-14T20:36:08.335Z,102076.66
2023-12-14T20:38:40.209Z,102079.38
2023-12-14T20:41:09.469Z,102083.97
2023-12-14T20:43:40.085Z,102080.41
2023-12-14T20:46:09.312Z,102091.94
2023-12-14T20:48:38.865Z,102089.41
2023-12-14T20:51:07.381Z,102086.69
2023-12-14T20:53:35.317Z,102091.09
2023-12-14T20:56:04.356Z,102090.03
2023-12-14T20:58:32.553Z,102094.66
2023-12-14T21:01:01.971Z,102100.09
2023-12-14T21:03:30.310Z,102092.75
2023-12-14T21:05:58.357Z,102089.41
2023-12-14T21:08:27.045Z,102100.09
2023-12-14T21:10:55.218Z,102105.53
2023-12-14T21:13:23.664Z,102101.97
2023-12-14T21:15:51.764Z,102110.13
2023-12-14T21:18:21.280Z,102110.13
2023-12-14T21:20:50.928Z,102107.41
2023-12-14T21:23:20.444Z,102109.28
2023-12-14T21:26:04.332Z,102106.56
2023-12-14T21:28:31.520Z,102110.13
2023-12-14T21:30:59.916Z,102123.50
2023-12-14T21:33:32.162Z,102120.78
2023-12-14T21:36:00.669Z,102127.28
2023-12-14T21:38:28.677Z,102121.84
2023-12-14T21:40:56.697Z,102130.81
2023-12-14T21:43:24.630Z,102134.38
2023-12-14T21:45:52.590Z,102131.66
2023-12-14T21:48:20.569Z,102138.78
2023-12-14T21:50:50.104Z,102132.50
2023-12-14T21:53:18.172Z,102142.53
2023-12-14T21:55:46.239Z,102135.44
2023-12-14T21:58:14.207Z,102137.94
2023-12-14T22:00:42.151Z,102147.13
2023-12-14T22:03:10.576Z,102149.03
2023-12-14T22:05:38.955Z,102147.97
2023-12-14T22:08:08.443Z,102149.84
2023-12-14T22:10:36.538Z,102156.13
2023-12-14T22:13:04.835Z,102159.69
2023-12-14T22:15:32.804Z,102160.53
2023-12-14T22:18:00.864Z,102156.13
2023-12-14T22:20:28.921Z,102156.13
2023-12-14T22:22:58.266Z,102159.69
2023-12-14T22:25:27.611Z,102171.41
2023-12-14T22:27:55.513Z,102186.88
2023-12-14T22:30:23.465Z,102185.19
2023-12-14T22:32:51.727Z,102184.34
2023-12-14T22:35:19.809Z,102193.31
2023-12-14T22:37:47.818Z,102193.31
2023-12-14T22:40:16.183Z,102188.94
2023-12-14T22:42:45.666Z,102191.66
2023-12-14T22:45:13.721Z,102191.66
2023-12-14T22:47:41.912Z,102196.25
2023-12-14T22:50:10.983Z,102200.84
2023-12-14T22:52:39.037Z,102203.56
2023-12-14T22:55:11.552Z,102201.69
2023-12-14T22:57:39.720Z,102199.16
2023-12-14T23:00:13.477Z,102205.59
2023-12-14T23:02:41.454Z,102207.47
2023-12-14T23:05:09.915Z,102213.75
2023-12-14T23:07:38.178Z,102205.59
2023-12-14T23:10:07.045Z,102213.97
2023-12-14T23:12:35.430Z,102212.06
2023-12-14T23:15:05.105Z,102210.41
2023-12-14T23:17:34.574Z,102215.84
2023-12-14T23:20:03.100Z,102210.41
2023-12-14T23:22:31.454Z,102219.56
2023-12-14T23:24:59.391Z,102225.84
2023-12-14T23:27:27.310Z,102225.00
2023-12-14T23:29:55.265Z,102229.59
2023-12-14T23:32:23.617Z,102227.72
2023-12-14T23:34:53.042Z,102235.03
2023-12-14T23:37:21.199Z,102241.31
2023-12-14T23:39:49.139Z,102245.91
2023-12-14T23:42:17.424Z,102239.63
2023-12-14T23:44:45.469Z,102238.78
2023-12-14T23:47:13.595Z,102247.78
2023-12-14T23:49:42.017Z,102253.03
2023-12-14T23:52:11.457Z,102256.78
2023-12-14T23:54:39.377Z,102262.38
2023-12-14T23:57:07.339Z,102263.22
2023-12-14T23:59:35.325Z,102269.69
